Time;durP1;ratioP1;P1;durP2;ratioP2;P2;SDS_P1;SDS_P2;PMS_P1;PMS_P2;Temp;Humidity;BMP_temperature;BMP_pressure;BME280_temperature;BME280_humidity;BME280_pressure;Samples;Min_cycle;Max_cycle;Signal;HPM_P1;HPM_P2
2022/03/16 00:02:12;;;;;;;18.60;15.07;;;;;;;;;;4933178;29;20542;-85
2022/03/16 00:05:17;;;;;;;24.83;17.13;;;;;;;;;;4934654;29;20195;-86
2022/03/16 00:08:21;;;;;;;21.30;16.40;;;;;;;;;;4936230;29;20222;-85
2022/03/16 00:11:25;;;;;;;24.70;16.93;;;;;;;;;;4934178;29;20191;-86
2022/03/16 00:14:30;;;;;;;27.00;18.63;;;;;;;;;;4947544;29;20701;-87
2022/03/16 00:17:35;;;;;;;23.27;18.57;;;;;;;;;;4937255;28;20215;-86
2022/03/16 00:20:39;;;;;;;24.40;18.67;;;;;;;;;;4939599;29;20190;-85
2022/03/16 00:23:44;;;;;;;25.47;19.77;;;;;;;;;;4943642;29;20210;-86
2022/03/16 00:26:48;;;;;;;24.23;17.97;;;;;;;;;;4933546;28;20200;-86
2022/03/16 00:29:52;;;;;;;27.40;18.00;;;;;;;;;;4944875;29;20693;-85
2022/03/16 00:32:56;;;;;;;23.77;17.83;;;;;;;;;;4936231;29;20195;-86
2022/03/16 00:36:02;;;;;;;24.27;18.60;;;;;;;;;;4955750;29;20222;-85
2022/03/16 00:39:07;;;;;;;25.60;19.60;;;;;;;;;;4940934;29;20191;-86
2022/03/16 00:42:12;;;;;;;25.07;19.13;;;;;;;;;;4935051;29;20642;-86
2022/03/16 00:45:16;;;;;;;24.13;18.03;;;;;;;;;;4936502;29;20204;-87
2022/03/16 00:48:20;;;;;;;26.83;18.60;;;;;;;;;;4934189;29;20211;-86
2022/03/16 00:51:25;;;;;;;30.80;18.80;;;;;;;;;;4933362;29;20550;-86
2022/03/16 00:54:30;;;;;;;24.33;19.23;;;;;;;;;;4927381;29;20192;-86
2022/03/16 00:57:34;;;;;;;24.90;19.50;;;;;;;;;;4925116;28;20238;-86
2022/03/16 01:00:39;;;;;;;27.87;19.67;;;;;;;;;;4944382;29;20195;-86
2022/03/16 01:03:44;;;;;;;25.23;19.03;;;;;;;;;;4932993;29;20550;-86
2022/03/16 01:06:49;;;;;;;29.23;20.57;;;;;;;;;;4957630;28;20641;-86
2022/03/16 01:09:53;;;;;;;27.10;19.77;;;;;;;;;;4947111;29;20191;-85
2022/03/16 01:12:57;;;;;;;28.10;20.30;;;;;;;;;;4938081;29;20191;-86
2022/03/16 01:16:01;;;;;;;26.87;20.47;;;;;;;;;;4933633;29;20224;-85
2022/03/16 01:19:06;;;;;;;27.67;20.73;;;;;;;;;;4942190;29;20183;-85
2022/03/16 01:22:11;;;;;;;28.80;20.07;;;;;;;;;;4938809;29;20179;-86
2022/03/16 01:25:15;;;;;;;26.33;18.50;;;;;;;;;;4932723;29;20183;-86
2022/03/16 01:28:19;;;;;;;26.67;18.30;;;;;;;;;;4932593;29;20226;-86
2022/03/16 01:31:23;;;;;;;24.10;17.07;;;;;;;;;;4951557;29;20192;-85
2022/03/16 01:34:27;;;;;;;20.90;16.07;;;;;;;;;;4954054;29;20187;-85
2022/03/16 01:37:32;;;;;;;21.67;16.43;;;;;;;;;;4952336;28;20223;-85
2022/03/16 01:40:38;;;;;;;21.63;16.10;;;;;;;;;;4941729;29;20213;-85
2022/03/16 01:43:42;;;;;;;20.67;15.87;;;;;;;;;;4952242;29;20190;-85
2022/03/16 01:46:46;;;;;;;23.50;17.57;;;;;;;;;;4951021;28;20186;-87
2022/03/16 01:49:54;;;;;;;21.70;16.10;;;;;;;;;;4951746;29;20188;-85
2022/03/16 01:52:58;;;;;;;19.80;14.73;;;;;;;;;;4951278;28;20191;-86
2022/03/16 01:56:03;;;;;;;16.93;13.00;;;;;;;;;;4941213;29;20207;-85
2022/03/16 01:59:10;;;;;;;16.63;13.60;;;;;;;;;;4940254;29;20566;-86
2022/03/16 02:02:15;;;;;;;18.20;13.53;;;;;;;;;;4940799;29;20176;-85
2022/03/16 02:05:19;;;;;;;17.50;12.47;;;;;;;;;;4941318;29;20204;-86
2022/03/16 02:08:24;;;;;;;17.87;12.97;;;;;;;;;;4939793;28;20226;-85
2022/03/16 02:11:28;;;;;;;20.80;15.20;;;;;;;;;;4939442;29;20188;-85
2022/03/16 02:14:33;;;;;;;19.97;14.93;;;;;;;;;;4939739;29;20548;-85
2022/03/16 02:17:37;;;;;;;21.97;15.07;;;;;;;;;;4950159;28;20701;-85
2022/03/16 02:20:41;;;;;;;24.13;15.97;;;;;;;;;;4951838;29;20186;-85
2022/03/16 02:23:45;;;;;;;20.37;15.27;;;;;;;;;;4941001;29;20190;-85
2022/03/16 02:26:49;;;;;;;21.80;16.30;;;;;;;;;;4940398;28;20188;-85
2022/03/16 02:29:54;;;;;;;22.63;16.23;;;;;;;;;;4963193;29;20187;-85
2022/03/16 02:32:58;;;;;;;23.50;16.53;;;;;;;;;;4950555;28;20180;-85
2022/03/16 02:36:02;;;;;;;21.57;16.10;;;;;;;;;;4940068;29;20234;-85
2022/03/16 02:39:07;;;;;;;22.83;16.87;;;;;;;;;;4949571;29;20192;-85
2022/03/16 02:42:11;;;;;;;23.90;15.77;;;;;;;;;;4939312;29;20196;-85
2022/03/16 02:45:15;;;;;;;21.80;16.00;;;;;;;;;;4939628;29;20168;-85
2022/03/16 02:48:20;;;;;;;24.07;16.93;;;;;;;;;;4938798;29;20215;-85
2022/03/16 02:51:25;;;;;;;22.70;16.20;;;;;;;;;;4947802;29;20179;-86
2022/03/16 02:54:29;;;;;;;24.60;16.97;;;;;;;;;;4931079;29;20571;-86
2022/03/16 02:57:33;;;;;;;23.70;16.63;;;;;;;;;;4919878;28;20230;-87
2022/03/16 03:00:38;;;;;;;24.37;16.73;;;;;;;;;;4931017;29;20184;-86
2022/03/16 03:03:41;;;;;;;24.03;16.57;;;;;;;;;;4942112;29;20184;-87
2022/03/16 03:06:46;;;;;;;23.57;16.40;;;;;;;;;;4930975;28;20195;-86
2022/03/16 03:09:51;;;;;;;24.07;16.40;;;;;;;;;;4930815;29;20550;-86
2022/03/16 03:12:55;;;;;;;21.30;16.23;;;;;;;;;;4941665;29;20548;-86
2022/03/16 03:15:58;;;;;;;21.33;16.07;;;;;;;;;;4930697;29;20207;-86
2022/03/16 03:19:03;;;;;;;22.07;16.17;;;;;;;;;;4941950;29;20661;-86
2022/03/16 03:22:07;;;;;;;21.60;15.83;;;;;;;;;;4941731;29;20194;-86
2022/03/16 03:25:13;;;;;;;22.33;16.60;;;;;;;;;;4930681;29;20193;-86
2022/03/16 03:28:17;;;;;;;22.13;15.70;;;;;;;;;;4930446;29;20222;-86
2022/03/16 03:31:21;;;;;;;20.93;15.33;;;;;;;;;;4930231;29;20203;-86
2022/03/16 03:34:26;;;;;;;19.30;14.60;;;;;;;;;;4930720;29;20182;-87
2022/03/16 03:37:30;;;;;;;21.80;16.33;;;;;;;;;;4930097;28;20238;-86
2022/03/16 03:40:34;;;;;;;19.50;14.67;;;;;;;;;;4930744;29;20194;-86
2022/03/16 03:43:38;;;;;;;22.60;15.70;;;;;;;;;;4952366;29;20191;-86
2022/03/16 03:46:42;;;;;;;23.07;15.77;;;;;;;;;;4947839;28;20186;-86
2022/03/16 03:49:46;;;;;;;22.30;15.57;;;;;;;;;;4948189;29;20195;-86
2022/03/16 03:52:50;;;;;;;22.77;16.80;;;;;;;;;;4936867;29;20186;-86
2022/03/16 03:55:55;;;;;;;23.67;15.83;;;;;;;;;;4936660;29;20231;-87
2022/03/16 03:58:59;;;;;;;24.27;16.37;;;;;;;;;;4947338;29;20234;-87
2022/03/16 04:02:03;;;;;;;22.87;15.80;;;;;;;;;;4936732;29;20186;-86
2022/03/16 04:05:07;;;;;;;20.90;15.70;;;;;;;;;;4936622;29;20194;-87
2022/03/16 04:08:12;;;;;;;22.10;15.20;;;;;;;;;;4958097;29;20601;-86
2022/03/16 04:11:16;;;;;;;20.60;15.47;;;;;;;;;;4936962;29;20187;-85
2022/03/16 04:14:20;;;;;;;21.03;15.47;;;;;;;;;;4948134;29;20184;-85
2022/03/16 04:17:24;;;;;;;21.70;15.70;;;;;;;;;;4959075;28;20234;-85
2022/03/16 04:20:28;;;;;;;21.50;16.10;;;;;;;;;;4937213;29;20190;-85
2022/03/16 04:23:32;;;;;;;20.90;15.03;;;;;;;;;;4947722;29;20195;-85
2022/03/16 04:26:37;;;;;;;21.07;15.87;;;;;;;;;;4937139;28;20252;-85
2022/03/16 04:29:41;;;;;;;19.83;14.33;;;;;;;;;;4936568;29;20187;-85
2022/03/16 04:32:46;;;;;;;19.87;14.63;;;;;;;;;;4936873;29;20183;-85
2022/03/16 04:35:50;;;;;;;21.30;15.60;;;;;;;;;;4947555;29;20575;-85
2022/03/16 04:38:55;;;;;;;21.83;15.53;;;;;;;;;;4958399;29;20578;-85
2022/03/16 04:41:59;;;;;;;22.40;16.20;;;;;;;;;;4936684;29;20188;-85
2022/03/16 04:45:04;;;;;;;22.27;15.33;;;;;;;;;;4925425;29;20183;-85
2022/03/16 04:48:11;;;;;;;21.03;15.67;;;;;;;;;;4936884;29;20211;-85
2022/03/16 04:51:15;;;;;;;21.30;15.47;;;;;;;;;;4936931;29;20203;-85
2022/03/16 04:54:20;;;;;;;20.60;14.67;;;;;;;;;;4947427;29;20195;-85
2022/03/16 04:57:24;;;;;;;19.87;14.97;;;;;;;;;;4943384;28;20238;-85
2022/03/16 05:00:28;;;;;;;22.20;15.30;;;;;;;;;;4944312;29;20183;-85
2022/03/16 05:03:32;;;;;;;26.53;17.63;;;;;;;;;;4933503;29;20183;-85
2022/03/16 05:06:36;;;;;;;30.03;18.87;;;;;;;;;;4943761;28;20187;-85
2022/03/16 05:09:41;;;;;;;25.07;16.93;;;;;;;;;;4934894;29;20195;-85
2022/03/16 05:12:45;;;;;;;27.33;17.23;;;;;;;;;;4945698;29;20195;-85
2022/03/16 05:15:49;;;;;;;25.47;17.83;;;;;;;;;;4945214;29;20208;-85
2022/03/16 05:18:53;;;;;;;24.40;16.93;;;;;;;;;;4934346;29;20222;-86
2022/03/16 05:21:57;;;;;;;25.37;17.20;;;;;;;;;;4934731;29;20180;-86
2022/03/16 05:25:02;;;;;;;27.63;17.43;;;;;;;;;;4933626;29;20206;-86
2022/03/16 05:28:06;;;;;;;25.97;17.37;;;;;;;;;;4944141;29;20224;-85
2022/03/16 05:31:10;;;;;;;29.03;18.40;;;;;;;;;;4932700;29;20656;-85
2022/03/16 05:34:14;;;;;;;32.20;19.93;;;;;;;;;;4932624;29;20191;-86
2022/03/16 05:37:18;;;;;;;29.87;19.97;;;;;;;;;;4921391;28;20230;-86
2022/03/16 05:40:22;;;;;;;27.27;18.80;;;;;;;;;;4932346;29;20559;-86
2022/03/16 05:43:27;;;;;;;25.83;18.80;;;;;;;;;;4934765;29;20193;-85
2022/03/16 05:46:31;;;;;;;29.33;18.90;;;;;;;;;;4941788;29;20188;-85
2022/03/16 05:49:36;;;;;;;27.70;20.30;;;;;;;;;;4940633;29;20184;-85
2022/03/16 05:52:41;;;;;;;31.87;20.70;;;;;;;;;;4939491;29;20186;-86
2022/03/16 05:55:45;;;;;;;30.13;20.10;;;;;;;;;;4932503;29;20569;-86
2022/03/16 05:58:49;;;;;;;31.50;20.87;;;;;;;;;;4942962;29;20616;-86
2022/03/16 06:01:53;;;;;;;31.87;21.33;;;;;;;;;;4932813;29;20191;-86
2022/03/16 06:04:58;;;;;;;32.83;22.33;;;;;;;;;;4932316;29;20550;-86
2022/03/16 06:08:02;;;;;;;32.03;21.83;;;;;;;;;;4942315;29;20226;-86
2022/03/16 06:11:05;;;;;;;33.30;21.60;;;;;;;;;;4931838;29;20183;-86
2022/03/16 06:14:09;;;;;;;30.53;21.67;;;;;;;;;;4942903;29;20203;-86
2022/03/16 06:17:13;;;;;;;28.20;20.70;;;;;;;;;;4942879;28;20228;-86
2022/03/16 06:20:18;;;;;;;30.03;20.63;;;;;;;;;;4932233;29;20187;-85
2022/03/16 06:23:22;;;;;;;37.03;23.93;;;;;;;;;;4942947;29;20186;-86
2022/03/16 06:26:26;;;;;;;30.73;21.60;;;;;;;;;;4931382;29;20206;-86
2022/03/16 06:29:31;;;;;;;31.50;20.97;;;;;;;;;;4942497;29;20562;-86
2022/03/16 06:32:35;;;;;;;29.37;20.40;;;;;;;;;;4932042;29;20176;-86
2022/03/16 06:35:39;;;;;;;30.00;20.77;;;;;;;;;;4942510;29;20182;-86
2022/03/16 06:38:43;;;;;;;28.63;20.00;;;;;;;;;;4932765;29;20226;-86
2022/03/16 06:41:47;;;;;;;28.30;19.13;;;;;;;;;;4920423;29;20546;-86
2022/03/16 06:44:51;;;;;;;26.20;17.73;;;;;;;;;;4931347;29;20195;-86
2022/03/16 06:47:58;;;;;;;18.93;13.63;;;;;;;;;;4931306;29;20226;-86
2022/03/16 06:51:02;;;;;;;19.27;13.37;;;;;;;;;;4931205;29;20282;-86
2022/03/16 06:54:06;;;;;;;17.03;12.30;;;;;;;;;;4931671;29;20212;-86
2022/03/16 06:57:11;;;;;;;13.33;11.40;;;;;;;;;;4932726;28;20240;-86
2022/03/16 07:00:15;;;;;;;13.67;10.70;;;;;;;;;;4942042;29;20190;-85
2022/03/16 07:03:20;;;;;;;13.50;10.63;;;;;;;;;;4942491;29;20180;-86
2022/03/16 07:06:25;;;;;;;15.90;11.90;;;;;;;;;;4926240;29;20212;-85
2022/03/16 07:09:32;;;;;;;17.43;11.80;;;;;;;;;;4939878;29;20179;-85
2022/03/16 07:12:36;;;;;;;16.13;12.13;;;;;;;;;;4941915;29;20183;-85
2022/03/16 07:15:42;;;;;;;14.37;10.50;;;;;;;;;;4942807;29;20190;-85
2022/03/16 07:18:47;;;;;;;14.90;11.57;;;;;;;;;;4940283;29;20222;-85
2022/03/16 07:21:51;;;;;;;15.73;11.40;;;;;;;;;;4939179;29;20192;-85
2022/03/16 07:24:55;;;;;;;14.90;10.53;;;;;;;;;;4940043;29;20180;-85
2022/03/16 07:27:59;;;;;;;16.53;11.70;;;;;;;;;;4951484;29;20215;-85
2022/03/16 07:31:04;;;;;;;14.50;11.47;;;;;;;;;;4952798;29;20516;-85
2022/03/16 07:34:08;;;;;;;14.57;11.33;;;;;;;;;;4941253;29;20188;-85
2022/03/16 07:37:12;;;;;;;15.83;12.47;;;;;;;;;;4935448;28;20246;-85
2022/03/16 07:40:16;;;;;;;14.00;11.37;;;;;;;;;;4936706;29;20540;-85
2022/03/16 07:43:21;;;;;;;14.70;11.43;;;;;;;;;;4948082;29;20258;-85
2022/03/16 07:46:26;;;;;;;13.67;11.00;;;;;;;;;;4948924;29;20661;-85
2022/03/16 07:49:30;;;;;;;19.33;13.00;;;;;;;;;;4946683;29;20264;-85
2022/03/16 07:52:34;;;;;;;15.90;11.80;;;;;;;;;;4936860;29;20200;-85
2022/03/16 07:55:38;;;;;;;15.77;12.20;;;;;;;;;;4934740;29;20184;-85
2022/03/16 07:58:43;;;;;;;17.30;12.80;;;;;;;;;;4935085;29;20595;-86
2022/03/16 08:01:47;;;;;;;17.43;12.70;;;;;;;;;;4935905;29;20186;-85
2022/03/16 08:04:51;;;;;;;17.77;12.67;;;;;;;;;;4935009;29;20185;-85
2022/03/16 08:07:56;;;;;;;18.33;13.23;;;;;;;;;;4936925;29;20287;-85
2022/03/16 08:11:00;;;;;;;15.83;11.53;;;;;;;;;;4936775;29;20183;-85
2022/03/16 08:14:04;;;;;;;16.77;12.40;;;;;;;;;;4936188;29;20198;-85
2022/03/16 08:17:08;;;;;;;14.37;11.67;;;;;;;;;;4935320;28;20242;-85
2022/03/16 08:20:12;;;;;;;16.97;12.17;;;;;;;;;;4935232;29;20215;-85
2022/03/16 08:23:16;;;;;;;15.87;12.00;;;;;;;;;;4936381;29;20208;-85
2022/03/16 08:26:21;;;;;;;16.37;11.57;;;;;;;;;;4946998;29;20188;-85
2022/03/16 08:29:26;;;;;;;14.97;11.83;;;;;;;;;;4947900;29;20176;-85
2022/03/16 08:32:30;;;;;;;16.13;12.23;;;;;;;;;;4942917;29;20184;-86
2022/03/16 08:35:34;;;;;;;16.03;11.83;;;;;;;;;;4943541;29;20188;-85
2022/03/16 08:38:38;;;;;;;13.97;11.83;;;;;;;;;;4931560;29;20237;-86
2022/03/16 08:41:42;;;;;;;12.90;10.33;;;;;;;;;;4941125;29;20187;-85
2022/03/16 08:44:47;;;;;;;14.80;11.97;;;;;;;;;;4950389;29;20211;-86
2022/03/16 08:47:51;;;;;;;13.23;10.93;;;;;;;;;;4951005;29;20226;-85
2022/03/16 08:50:55;;;;;;;14.47;10.83;;;;;;;;;;4940805;29;20195;-85
2022/03/16 08:53:59;;;;;;;13.57;10.53;;;;;;;;;;4939528;29;20190;-85
2022/03/16 08:57:04;;;;;;;13.97;10.83;;;;;;;;;;4929083;28;20238;-86
2022/03/16 09:00:14;;;;;;;12.50;10.73;;;;;;;;;;4951401;29;20187;-86
2022/03/16 09:03:18;;;;;;;15.50;11.23;;;;;;;;;;4940953;29;20194;-86
2022/03/16 09:06:22;;;;;;;13.50;11.10;;;;;;;;;;4940287;29;20593;-86
2022/03/16 09:09:26;;;;;;;14.27;11.30;;;;;;;;;;4951431;29;20207;-86
2022/03/16 09:12:30;;;;;;;13.57;10.70;;;;;;;;;;4941066;29;20202;-85
2022/03/16 09:15:35;;;;;;;13.27;10.73;;;;;;;;;;4940786;29;20191;-86
2022/03/16 09:18:40;;;;;;;13.60;11.07;;;;;;;;;;4939726;29;20234;-85
2022/03/16 09:21:45;;;;;;;12.97;11.07;;;;;;;;;;4938450;29;20199;-85
2022/03/16 09:24:49;;;;;;;13.60;10.80;;;;;;;;;;4939340;29;20215;-85
2022/03/16 09:27:53;;;;;;;14.80;11.33;;;;;;;;;;4948611;29;20226;-86
2022/03/16 09:30:57;;;;;;;14.27;11.97;;;;;;;;;;4932414;29;20228;-86
2022/03/16 09:34:05;;;;;;;14.67;12.03;;;;;;;;;;4932738;29;20650;-86
2022/03/16 09:37:10;;;;;;;12.93;11.37;;;;;;;;;;4932119;28;20227;-86
2022/03/16 09:40:14;;;;;;;15.47;12.47;;;;;;;;;;4943263;29;20191;-86
2022/03/16 09:43:22;;;;;;;14.77;12.57;;;;;;;;;;4942466;29;20191;-86
2022/03/16 09:46:31;;;;;;;14.87;12.67;;;;;;;;;;4921015;29;20206;-86
2022/03/16 09:49:35;;;;;;;16.30;13.23;;;;;;;;;;4932347;29;20203;-86
2022/03/16 09:52:40;;;;;;;16.07;13.27;;;;;;;;;;4932328;29;20210;-86
2022/03/16 09:55:44;;;;;;;17.27;13.47;;;;;;;;;;4931931;29;20218;-86
2022/03/16 09:58:49;;;;;;;15.23;12.53;;;;;;;;;;4931797;29;20242;-86
2022/03/16 10:02:06;;;;;;;18.03;12.97;;;;;;;;;;4942696;29;20696;-86
2022/03/16 10:05:10;;;;;;;16.03;13.00;;;;;;;;;;4943178;29;20191;-86
2022/03/16 10:08:32;;;;;;;15.43;12.37;;;;;;;;;;4932753;29;20226;-86
2022/03/16 10:15:04;;;;;;;15.90;11.97;;;;;;;;;;4942796;29;20207;-86
2022/03/16 10:18:08;;;;;;;17.33;14.20;;;;;;;;;;4931618;29;20235;-86
2022/03/16 10:21:12;;;;;;;16.53;13.20;;;;;;;;;;4932364;29;20535;-86
2022/03/16 10:24:29;;;;;;;15.97;13.20;;;;;;;;;;4931869;29;20191;-86
2022/03/16 10:27:37;;;;;;;15.97;12.47;;;;;;;;;;4931850;28;20226;-86
2022/03/16 10:30:57;;;;;;;16.80;13.50;;;;;;;;;;4942724;29;20182;-86
2022/03/16 10:34:05;;;;;;;16.30;12.67;;;;;;;;;;4932018;29;20191;-86
2022/03/16 10:37:19;;;;;;;19.27;13.03;;;;;;;;;;4931353;28;20234;-86
2022/03/16 10:40:24;;;;;;;15.87;12.37;;;;;;;;;;4931824;29;20194;-86
2022/03/16 10:46:55;;;;;;;15.73;13.57;;;;;;;;;;4931832;28;20211;-86
2022/03/16 10:50:06;;;;;;;16.10;13.23;;;;;;;;;;4942389;29;20642;-86
2022/03/16 10:53:12;;;;;;;16.53;14.13;;;;;;;;;;4930933;29;20559;-86
2022/03/16 10:56:18;;;;;;;15.37;12.80;;;;;;;;;;4941290;29;20226;-87
2022/03/16 10:59:27;;;;;;;18.33;13.77;;;;;;;;;;4930638;29;20230;-87
2022/03/16 11:02:34;;;;;;;16.53;14.43;;;;;;;;;;4931098;29;20194;-87
2022/03/16 11:05:39;;;;;;;16.87;12.77;;;;;;;;;;4942383;29;20210;-87
2022/03/16 11:08:44;;;;;;;16.87;13.33;;;;;;;;;;4931072;29;20725;-87
2022/03/16 11:15:11;;;;;;;18.17;14.30;;;;;;;;;;4941376;29;20190;-86
2022/03/16 11:18:17;;;;;;;17.60;13.93;;;;;;;;;;4941193;29;20235;-86
2022/03/16 11:21:28;;;;;;;17.10;13.60;;;;;;;;;;4930888;29;20191;-86
2022/03/16 11:24:37;;;;;;;18.73;15.13;;;;;;;;;;4930844;29;20191;-86
2022/03/16 11:27:46;;;;;;;16.13;13.83;;;;;;;;;;4952469;29;20238;-86
2022/03/16 11:30:53;;;;;;;17.23;14.23;;;;;;;;;;4941877;29;20191;-87
2022/03/16 11:34:03;;;;;;;17.70;15.07;;;;;;;;;;4930410;29;20186;-86
2022/03/16 11:37:12;;;;;;;16.30;14.07;;;;;;;;;;4948742;28;20597;-87
2022/03/16 11:40:20;;;;;;;17.60;14.63;;;;;;;;;;4949977;28;20534;-88
2022/03/16 11:43:25;;;;;;;18.70;14.27;;;;;;;;;;4960412;28;20213;-87
2022/03/16 11:46:31;;;;;;;17.57;14.83;;;;;;;;;;4960580;28;20210;-87
2022/03/16 11:49:44;;;;;;;18.90;15.03;;;;;;;;;;4949159;28;20198;-87
2022/03/16 11:52:58;;;;;;;17.50;14.97;;;;;;;;;;4948890;28;20198;-87
2022/03/16 11:56:20;;;;;;;18.93;15.17;;;;;;;;;;4948893;28;20206;-87
2022/03/16 11:59:24;;;;;;;19.73;15.03;;;;;;;;;;4949156;28;20218;-87
2022/03/16 12:02:28;;;;;;;18.30;15.70;;;;;;;;;;4960293;28;20189;-87
2022/03/16 12:06:01;;;;;;;17.50;15.10;;;;;;;;;;4960460;28;20206;-86
2022/03/16 12:09:05;;;;;;;15.20;13.60;;;;;;;;;;4952734;28;20182;-87
2022/03/16 12:15:55;;;;;;;18.57;14.87;;;;;;;;;;4979358;28;20304;-87
2022/03/16 12:19:28;;;;;;;15.87;13.90;;;;;;;;;;4950846;28;20229;-87
2022/03/16 12:22:37;;;;;;;19.20;15.03;;;;;;;;;;4952619;28;20194;-87
2022/03/16 12:25:44;;;;;;;19.40;14.80;;;;;;;;;;4942092;28;20187;-87
2022/03/16 12:28:59;;;;;;;19.30;15.53;;;;;;;;;;4933279;29;20223;-87
2022/03/16 12:32:04;;;;;;;20.07;15.47;;;;;;;;;;4960286;28;20210;-87
2022/03/16 12:35:09;;;;;;;20.67;15.87;;;;;;;;;;4974510;28;20190;-87
2022/03/16 12:38:13;;;;;;;17.00;14.97;;;;;;;;;;4952376;28;20712;-87
2022/03/16 12:44:45;;;;;;;16.07;14.07;;;;;;;;;;4984966;28;20688;-87
2022/03/16 12:48:10;;;;;;;18.73;16.07;;;;;;;;;;4963644;28;20221;-87
2022/03/16 12:51:32;;;;;;;16.90;15.10;;;;;;;;;;4963512;28;20191;-87
2022/03/16 12:54:37;;;;;;;17.53;15.37;;;;;;;;;;4951843;28;20201;-87
2022/03/16 12:57:59;;;;;;;18.57;15.50;;;;;;;;;;4956792;28;20233;-87
2022/03/16 13:01:04;;;;;;;22.50;15.13;;;;;;;;;;4944685;28;20206;-87
2022/03/16 13:04:08;;;;;;;17.20;14.37;;;;;;;;;;4964305;28;20198;-88
2022/03/16 13:07:15;;;;;;;19.30;15.73;;;;;;;;;;4942944;28;20221;-87
2022/03/16 13:10:23;;;;;;;20.43;15.17;;;;;;;;;;4974872;28;20190;-86
2022/03/16 13:13:27;;;;;;;18.67;16.13;;;;;;;;;;4988174;28;20553;-87
2022/03/16 13:16:36;;;;;;;19.83;15.47;;;;;;;;;;4954745;28;20198;-88
2022/03/16 13:19:44;;;;;;;19.07;16.00;;;;;;;;;;4964678;28;20222;-86
2022/03/16 13:22:48;;;;;;;16.67;14.93;;;;;;;;;;4966328;28;20205;-88
2022/03/16 13:26:10;;;;;;;18.47;15.53;;;;;;;;;;4947627;28;20197;-87
2022/03/16 13:29:15;;;;;;;17.30;14.57;;;;;;;;;;4972342;28;20194;-87
2022/03/16 13:32:32;;;;;;;18.30;15.53;;;;;;;;;;4965620;28;20649;-88
2022/03/16 13:35:36;;;;;;;17.20;15.00;;;;;;;;;;4952752;28;20718;-88
2022/03/16 13:38:41;;;;;;;17.27;15.40;;;;;;;;;;4942230;28;20234;-87
2022/03/16 13:42:12;;;;;;;20.13;14.43;;;;;;;;;;4954011;28;20186;-88
2022/03/16 13:45:32;;;;;;;20.13;15.73;;;;;;;;;;4960446;28;20193;-87
2022/03/16 13:48:38;;;;;;;17.10;14.30;;;;;;;;;;4950835;28;20238;-87
2022/03/16 13:52:10;;;;;;;16.20;14.40;;;;;;;;;;4962364;28;20545;-88
2022/03/16 13:55:14;;;;;;;16.60;14.37;;;;;;;;;;4940553;28;20198;-88
2022/03/16 13:58:20;;;;;;;17.10;14.40;;;;;;;;;;4939335;28;20256;-88
2022/03/16 14:01:28;;;;;;;17.27;15.37;;;;;;;;;;4961247;28;20549;-88
2022/03/16 14:04:37;;;;;;;18.77;15.80;;;;;;;;;;4980175;28;20673;-87
2022/03/16 14:07:44;;;;;;;18.07;16.13;;;;;;;;;;4973162;28;20566;-86
2022/03/16 14:10:50;;;;;;;19.37;15.23;;;;;;;;;;4951296;28;20202;-86
2022/03/16 14:13:54;;;;;;;18.23;15.30;;;;;;;;;;5067430;28;20207;-86
2022/03/16 14:17:02;;;;;;;17.13;15.07;;;;;;;;;;5032956;28;20219;-86
2022/03/16 14:20:15;;;;;;;18.33;16.33;;;;;;;;;;5021912;28;20215;-86
2022/03/16 14:23:20;;;;;;;18.73;15.83;;;;;;;;;;5044484;28;20187;-86
2022/03/16 14:26:24;;;;;;;18.10;15.13;;;;;;;;;;5033155;28;20187;-85
2022/03/16 14:29:31;;;;;;;19.60;14.97;;;;;;;;;;5033180;28;20183;-86
2022/03/16 14:32:35;;;;;;;17.60;15.33;;;;;;;;;;5033428;28;20187;-86
2022/03/16 14:35:39;;;;;;;19.63;16.63;;;;;;;;;;5033746;28;20192;-87
2022/03/16 14:38:44;;;;;;;19.87;16.73;;;;;;;;;;5021876;28;20218;-85
2022/03/16 14:41:49;;;;;;;19.83;16.87;;;;;;;;;;5033579;28;20191;-88
2022/03/16 14:44:53;;;;;;;20.53;16.00;;;;;;;;;;5022818;28;20187;-86
2022/03/16 14:47:59;;;;;;;20.73;16.97;;;;;;;;;;5022053;28;20223;-86
2022/03/16 14:51:03;;;;;;;21.27;17.17;;;;;;;;;;5026119;28;20183;-87
2022/03/16 14:54:08;;;;;;;21.00;17.77;;;;;;;;;;5024187;28;20681;-87
2022/03/16 14:57:12;;;;;;;18.90;16.07;;;;;;;;;;5024372;28;20235;-85
2022/03/16 15:00:18;;;;;;;18.93;16.47;;;;;;;;;;5024001;28;20230;-86
2022/03/16 15:03:22;;;;;;;19.93;17.03;;;;;;;;;;5024092;28;20178;-86
2022/03/16 15:06:26;;;;;;;23.53;17.17;;;;;;;;;;5027580;28;20203;-86
2022/03/16 15:09:30;;;;;;;18.87;16.10;;;;;;;;;;5027074;28;20206;-86
2022/03/16 15:12:35;;;;;;;20.00;16.20;;;;;;;;;;5027327;28;20203;-86
2022/03/16 15:15:39;;;;;;;22.63;17.47;;;;;;;;;;5028982;28;20199;-86
2022/03/16 15:18:43;;;;;;;22.07;16.57;;;;;;;;;;5019885;28;20218;-86
2022/03/16 15:21:47;;;;;;;18.70;16.50;;;;;;;;;;5021908;28;20199;-86
2022/03/16 15:24:51;;;;;;;24.23;17.47;;;;;;;;;;5034890;28;20567;-86
2022/03/16 15:27:58;;;;;;;18.73;16.67;;;;;;;;;;5026344;28;20235;-86
2022/03/16 15:31:02;;;;;;;23.50;16.90;;;;;;;;;;5021845;28;20202;-85
2022/03/16 15:34:07;;;;;;;20.23;16.73;;;;;;;;;;5030532;28;20688;-85
2022/03/16 15:37:11;;;;;;;23.60;18.07;;;;;;;;;;5035684;28;20219;-86
2022/03/16 15:43:38;;;;;;;22.17;17.17;;;;;;;;;;5035899;28;20187;-86
2022/03/16 15:46:44;;;;;;;19.33;16.53;;;;;;;;;;5037884;28;20199;-86
2022/03/16 15:49:48;;;;;;;20.87;17.80;;;;;;;;;;5032082;28;20179;-86
2022/03/16 15:52:52;;;;;;;21.80;17.40;;;;;;;;;;5024154;28;20206;-86
2022/03/16 15:55:58;;;;;;;19.60;17.10;;;;;;;;;;4951888;28;20190;-86
2022/03/16 15:59:02;;;;;;;20.63;17.67;;;;;;;;;;4940448;28;20234;-86
2022/03/16 16:02:06;;;;;;;21.47;18.50;;;;;;;;;;4939156;28;20691;-86
2022/03/16 16:05:10;;;;;;;21.07;17.60;;;;;;;;;;4950285;28;20209;-86
2022/03/16 16:08:16;;;;;;;20.47;17.30;;;;;;;;;;4953824;28;20717;-88
2022/03/16 16:11:20;;;;;;;23.47;18.57;;;;;;;;;;4934999;28;20194;-87
2022/03/16 16:14:25;;;;;;;25.60;19.10;;;;;;;;;;4955113;28;20206;-87
2022/03/16 16:17:29;;;;;;;22.23;18.47;;;;;;;;;;4950194;28;20222;-88
2022/03/16 16:20:34;;;;;;;23.57;19.47;;;;;;;;;;4961400;28;20218;-87
2022/03/16 16:23:39;;;;;;;22.20;18.37;;;;;;;;;;4946505;28;20210;-87
2022/03/16 16:26:44;;;;;;;23.77;20.23;;;;;;;;;;4971997;28;20253;-85
2022/03/16 16:29:48;;;;;;;25.10;19.87;;;;;;;;;;4938766;28;20668;-86
2022/03/16 16:32:52;;;;;;;26.73;20.53;;;;;;;;;;4965094;28;20217;-86
2022/03/16 16:35:59;;;;;;;24.90;19.53;;;;;;;;;;4964347;28;20225;-87
2022/03/16 16:39:05;;;;;;;24.57;19.53;;;;;;;;;;4943271;28;20186;-87
2022/03/16 16:45:34;;;;;;;22.73;18.97;;;;;;;;;;4951808;28;20195;-86
2022/03/16 16:48:42;;;;;;;25.20;19.70;;;;;;;;;;4952441;28;20585;-87
2022/03/16 16:51:46;;;;;;;23.33;19.50;;;;;;;;;;4942423;28;20194;-87
2022/03/16 16:54:50;;;;;;;26.30;19.73;;;;;;;;;;4966926;28;20190;-87
2022/03/16 16:57:54;;;;;;;25.17;19.97;;;;;;;;;;4954990;28;20237;-88
2022/03/16 17:00:58;;;;;;;22.97;18.90;;;;;;;;;;4954474;28;20569;-87
2022/03/16 17:04:03;;;;;;;23.90;20.23;;;;;;;;;;4956066;28;20198;-89
2022/03/16 17:07:08;;;;;;;24.03;19.73;;;;;;;;;;4946357;28;20210;-89
2022/03/16 17:10:12;;;;;;;25.93;20.40;;;;;;;;;;4921726;29;20187;-88
2022/03/16 17:13:17;;;;;;;24.50;19.83;;;;;;;;;;4932797;29;20200;-88
2022/03/16 17:16:21;;;;;;;26.90;20.37;;;;;;;;;;4956088;28;20215;-87
2022/03/16 17:19:26;;;;;;;25.87;21.13;;;;;;;;;;4963671;28;20183;-88
2022/03/16 17:22:30;;;;;;;24.77;20.60;;;;;;;;;;4942390;28;20187;-86
2022/03/16 17:25:37;;;;;;;27.57;21.20;;;;;;;;;;4953308;28;20257;-86
2022/03/16 17:28:42;;;;;;;27.23;21.47;;;;;;;;;;4965334;28;20225;-87
2022/03/16 17:31:47;;;;;;;30.90;21.80;;;;;;;;;;4963340;28;20201;-85
2022/03/16 17:34:51;;;;;;;28.37;21.70;;;;;;;;;;4973856;28;20190;-87
2022/03/16 17:37:56;;;;;;;29.40;23.33;;;;;;;;;;4953685;29;20599;-87
2022/03/16 17:47:45;;;;;;;28.13;23.10;;;;;;;;;;4966036;28;20584;-87
2022/03/16 17:50:52;;;;;;;29.83;23.73;;;;;;;;;;4945352;28;20221;-86
2022/03/16 17:53:57;;;;;;;29.57;23.27;;;;;;;;;;4946329;28;20194;-87
2022/03/16 17:57:25;;;;;;;29.93;23.00;;;;;;;;;;4970291;28;20243;-86
2022/03/16 18:00:29;;;;;;;39.53;31.53;;;;;;;;;;4962439;28;20701;-86
2022/03/16 18:03:34;;;;;;;45.53;34.97;;;;;;;;;;4949545;28;20204;-86
2022/03/16 18:06:39;;;;;;;66.07;46.20;;;;;;;;;;4950206;28;20215;-86
2022/03/16 18:13:10;;;;;;;59.03;39.23;;;;;;;;;;4962441;28;20195;-86
2022/03/16 18:16:14;;;;;;;78.80;48.03;;;;;;;;;;4962560;28;20183;-85
2022/03/16 18:19:19;;;;;;;89.50;53.57;;;;;;;;;;4961079;28;20183;-86
2022/03/16 18:22:23;;;;;;;40.10;29.07;;;;;;;;;;4962204;28;20179;-84
2022/03/16 18:25:27;;;;;;;35.30;26.73;;;;;;;;;;4961285;28;20181;-86
2022/03/16 18:28:35;;;;;;;34.47;26.30;;;;;;;;;;4965559;28;20223;-86
2022/03/16 18:31:41;;;;;;;32.70;25.77;;;;;;;;;;4963107;28;20187;-87
2022/03/16 18:34:45;;;;;;;34.07;26.77;;;;;;;;;;4963931;28;20181;-86